Aérodrome :
LOGIN :

S'inscrire | Disclaimer

   EN    FR    IT 

 










Légende :    VFR   VFR Marginal   IFR   IFR Intensif   IFR Très Intensif
Visi : 
Plafond : 
>= 8 km
>= 3000ft
5 à 8 km
1000 à 3000 ft
1500m à 5 km
500 à 1000 ft
800 à 1500m
200 à 500 ft
< 800m
< 200 ft
Symboles :   Orages  Brouillard  Fortes neiges  Fortes précipitations  Vent > 20 kt
SIGMETs :   Divers  Orages  Givrage  Turbulence  Onde Orograph.  Cendres Volcan.







- Altitude de l'aérodrome : 6 ft
- Code IATA : PSA


LIRP - Galileo Galilei Pisa

DERNIER METAR :
  • 191815Z 22005KT CAVOK 27/24 Q1013 NOSIG

METARs EXPIRÉS :
  • 191745Z 22005KT CAVOK 27/23 Q1013 NOSIG
  • 191715Z 23006KT CAVOK 27/23 Q1013 NOSIG
  • 191645Z 25006KT CAVOK 28/23 Q1013 NOSIG
  • 191615Z 27007KT CAVOK 28/22 Q1013 NOSIG
  • 191545Z 27008KT CAVOK 29/22 Q1013 NOSIG

TAF TAF LIRP
Valide du 19 à 18h jusqu'au 20 à 18h UTC


191700Z 1918/2018 30010KT CAVOK
BECMG 1919/1921 VRB03KT
TEMPO 2001/2004 5000 BR SCT010
BECMG 2007/2009 05010KT
Pas de NOTAMs connus pour ce terrain.
2 SIGMETs publiés pour la FIR Milano (LIMM) :
 
Orages noyés dans la masse
LIMM SIGMET 9 VALID 191610/192010 LIMM- LIMM MILANO FIR EMBD TS FCST WI N4711 E01220 - N4646 E01234 - N4636 E01341 - N4612 E01343 - N4554 E01334 - N4549 E01255 - N4510 E01142 - N4519 E01009 - N4538 E00900 - N4606 E00842 - N4629 E00905 - N4658 E01030 - N4711 E01220 TOP FL390 STNR NC=
Orages en lignes de grains
LIMM SIGMET 10 VALID 191745/191945 LIMM- LIMM MILANO FIR SQL TS OBS WI N4650 E01214 - N4638 E01259 - N4621 E01256 - N4601 E01153 - N4545 E01100 - N4541 E01022 - N4543 E00912 - N4608 E00925 - N4614 E01019 - N4650 E01214 TOP FL400 MOV SSE NC=



MET'MAP, la Météo Aéronautique d'un coup d'oeil ! - Copyright ORBIFLY Décembre 2007 - Disclaimer

ORBIFLY MET'MAP TEAM :

Programmation & Développement : Alexandra Zaïnal
Conception & Développement : Baudouin d'Aumeries
Co-Programmation & Développement : Marc-Olivier Méhu
Soutien technique & logistique : Manuel Goepfert

Contact : metmap@orbifly.com




SOURCES & CREDITS :

   NOAA